METAR Data
IDs: Format: Raw Decoded Include TAF

Data at: 0447 UTC 26 Sep 2018

KMGG 260435Z AUTO 00000KT 10SM BKN050 07/06 A3001 RMK AO2 T00720063
KMGG 260416Z AUTO 00000KT 10SM SCT050 07/06 A3001 RMK AO2 T00710061
KMGG 260355Z AUTO 00000KT 10SM SCT050 07/06 A3002 RMK AO2 T00670058 401410062
KMGG 260335Z AUTO 00000KT 10SM CLR 07/06 A3002 RMK AO2 T00670057
KMGG 260315Z AUTO 00000KT 10SM CLR 07/06 A3002 RMK AO2 T00670058
KMGG 260255Z AUTO 00000KT 10SM CLR 07/06 A3002 RMK AO2 T00670059
KMGG 260235Z AUTO 00000KT 10SM CLR 07/06 A3002 RMK AO2 T00650058
KMGG 260215Z AUTO 00000KT 10SM CLR 06/06 A3002 RMK AO2 T00640056
KMGG 260155Z AUTO 00000KT 10SM CLR 07/06 A3002 RMK AO2 T00700062
KMGG 260135Z AUTO 00000KT 10SM SCT045 07/06 A3002 RMK AO2 T00680060
KMGG 260116Z AUTO 00000KT 10SM SCT047 08/06 A3001 RMK AO2 T00790063
KMGG 260055Z AUTO 00000KT 10SM CLR 08/06 A3001 RMK AO2 T00800062
KMGG 260035Z AUTO 00000KT 10SM CLR 09/06 A3000 RMK AO2 T00900063
KMGG 260015Z AUTO 00000KT 10SM SCT040 10/07 A3000 RMK AO2 T00980065
KMGG 252355Z AUTO 30004KT 10SM CLR 11/07 A3000 RMK AO2 T01060066 10125 20106
KMGG 252335Z AUTO 29006KT 10SM CLR 12/07 A2999 RMK AO2 T01160070
KMGG 252315Z AUTO 29005KT 10SM SCT050 12/07 A2998 RMK AO2 T01200072
KMGG 252255Z AUTO 28006KT 10SM SCT034 SCT050 12/07 A2998 RMK AO2 T01200074
KMGG 252235Z AUTO 29006KT 10SM BKN034 13/08 A2997 RMK AO2 T01250076
KMGG 252215Z AUTO 30006KT 10SM SCT022 OVC032 12/08 A2997 RMK AO2 T01150079
KMGG 252155Z AUTO 30006KT 10SM BKN022 BKN029 OVC034 12/09 A2997 RMK AO2 T01200085
KMGG 252135Z AUTO 31006KT 10SM SCT022 BKN032 12/09 A2997 RMK AO2 T01200086
KMGG 252115Z AUTO 28006KT 10SM SCT018 BKN023 OVC033 12/09 A2997 RMK AO2 T01170090
KMGG 252055Z AUTO 29004KT 10SM -DZ BKN023 OVC031 11/09 A2997 RMK AO2 T01130086
KMGG 252035Z AUTO 30003KT 10SM -DZ BKN031 BKN038 BKN050 12/09 A2997 RMK AO2 T01150087
KMGG 252015Z AUTO 29005KT 10SM -DZ SCT024 SCT028 BKN036 12/09 A2997 RMK AO2 T01150086
KMGG 251955Z AUTO 28004KT 10SM -RA SCT022 SCT028 OVC036 11/08 A2997 RMK AO2 T01120080
KMGG 251935Z AUTO 29005KT 10SM SCT023 BKN030 OVC036 12/08 A2998 RMK AO2 T01150079
KMGG 251915Z AUTO 30006KT 10SM SCT023 BKN035 OVC090 12/08 A2998 RMK AO2 T01150078
KMGG 251855Z AUTO 30007KT 10SM -RA BKN080 11/08 A2998 RMK AO2 T01140081
KMGG 251835Z AUTO 32006KT 10SM OVC080 11/08 A2998 RMK AO2 T01100079
KMGG 251815Z AUTO 32007KT 10SM OVC080 11/08 A2997 RMK AO2 T01080084
KMGG 251755Z AUTO 33008KT 10SM BKN070 BKN090 OVC110 11/08 A2997 RMK AO2 T01080083 10111 20093
KMGG 251735Z AUTO 33008KT 10SM OVC070 10/09 A2996 RMK AO2 T01020086
KMGG 251715Z AUTO 33007KT 10SM OVC070 10/09 A2997 RMK AO2 T01000085
KMGG 251655Z AUTO 32007KT 10SM -DZ SCT013 SCT026 OVC070 10/09 A2998 RMK AO2 T00970086
KMGG 251635Z AUTO 32006KT 10SM -DZ SCT013 BKN055 OVC070 10/09 A2998 RMK AO2 T00960085
KMGG 251615Z AUTO 33006KT 10SM -RA SCT013 SCT042 OVC070 10/08 A2998 RMK AO2 T00950083
KMGG 251555Z AUTO 31006KT 10SM -RA SCT024 SCT033 OVC070 10/08 A2998 RMK AO2 T00950082
KMGG 251535Z AUTO 31004KT 10SM -RA SCT024 BKN033 OVC041 10/09 A2997 RMK AO2 T00950085
KMGG 251515Z AUTO 31003KT 10SM -RA SCT030 BKN050 OVC065 09/08 A2997 RMK AO2 T00940082
KMGG 251455Z AUTO 31005KT 10SM -RA SCT012 BKN017 OVC055 10/08 A2998 RMK AO2 T00950083
KMGG 251435Z AUTO 31007KT 10SM -RA OVC015 10/09 A2998 RMK AO2 T00950085
KMGG 251415Z AUTO 29004KT 10SM -RA OVC017 10/09 A2999 RMK AO2 T00960086
KMGG 251355Z AUTO 28003KT 10SM -RA OVC017 10/09 A2997 RMK AO2 T00950085
KMGG 251335Z AUTO 28005KT 10SM -RA OVC015 10/08 A2997 RMK AO2 T00950083
KMGG 251315Z AUTO 29006KT 10SM SCT010 OVC015 10/09 A2997 RMK AO2 T00960085
KMGG 251255Z AUTO 31005KT 10SM SCT010 OVC017 10/09 A2995 RMK AO2 T00970087
KMGG 251235Z AUTO 31004KT 10SM OVC015 10/09 A2995 RMK AO2 T00960087
KMGG 251215Z AUTO 32004KT 10SM SCT010 OVC015 10/09 A2994 RMK AO2 T00950087
KMGG 251155Z AUTO 33007KT 5SM BR OVC012 10/09 A2994 RMK AO2 T00960087 10116 20096
KMGG 251135Z AUTO 00000KT 5SM BR BKN009 OVC014 10/09 A2994 RMK AO2 T01000090
KMGG 251115Z AUTO 00000KT 7SM SCT009 OVC016 10/09 A2994 RMK AO2 T01000090
KMGG 251055Z AUTO 00000KT 10SM SCT009 OVC016 10/09 A2994 RMK AO2 T01000090
KMGG 251035Z AUTO 00000KT 10SM SCT008 OVC016 10/09 A2994 RMK AO2 T01010090
KMGG 251015Z AUTO 00000KT 10SM OVC018 10/09 A2995 RMK AO2 T01020090
KMGG 250955Z AUTO 00000KT 10SM OVC020 10/09 A2995 RMK AO2 T01030092
KMGG 250935Z AUTO 31005KT 10SM OVC020 10/09 A2995 RMK AO2 T01030092
KMGG 250915Z AUTO 31005KT 10SM SCT008 OVC020 11/10 A2994 RMK AO2 T01050095
KMGG 250855Z AUTO 30004KT 10SM SCT008 SCT012 OVC020 11/10 A2994 RMK AO2 T01050096
KMGG 250835Z AUTO 30004KT 10SM SCT008 BKN012 OVC022 11/10 A2994 RMK AO2 T01060097
KMGG 250815Z AUTO 31004KT 10SM BKN010 OVC022 11/10 A2993 RMK AO2 T01070097
KMGG 250755Z AUTO 31004KT 10SM OVC010 11/10 A2993 RMK AO2 T01080098
KMGG 250735Z AUTO 29005KT 10SM OVC012 11/10 A2994 RMK AO2 T01090100
KMGG 250715Z AUTO 28003KT 10SM OVC010 11/10 A2993 RMK AO2 T01100100
KMGG 250655Z AUTO 30004KT 10SM OVC010 11/10 A2993 RMK AO2 T01100100
KMGG 250635Z AUTO 31005KT 10SM OVC008 11/10 A2993 RMK AO2 T01100101
KMGG 250615Z AUTO 33007KT 10SM SCT006 BKN010 OVC024 11/10 A2992 RMK AO2 T01100102
KMGG 250555Z AUTO 34007KT 10SM OVC006 12/11 A2991 RMK AO2 T01190112 10161 20118
KMGG 250535Z AUTO 33006KT 10SM BKN006 OVC012 12/11 A2991 RMK AO2 T01200112
KMGG 250516Z AUTO 33008KT 10SM BKN008 OVC011 12/12 A2991 RMK AO2 T01220116
KMGG 250455Z AUTO 31008KT 4SM BR BKN005 OVC011 12/12 A2991 RMK AO2 T01230117
KMGG 250435Z AUTO 32009KT 3SM BR BKN007 OVC012 13/12 A2990 RMK AO2 T01270120
KMGG 250415Z AUTO 31007G14KT 10SM OVC007 14/13 A2989 RMK AO2 T01390131
KMGG 250355Z AUTO 31004KT 10SM BKN009 OVC015 14/14 A2988 RMK AO2 T01410135 402470141
KMGG 250335Z AUTO 30006KT 10SM BKN007 OVC015 14/14 A2988 RMK AO2 T01430136
KMGG 250315Z AUTO 32006KT 10SM SCT007 BKN015 OVC075 14/14 A2987 RMK AO2 T01430137
KMGG 250255Z AUTO 32006KT 10SM SCT006 BKN085 OVC095 14/14 A2987 RMK AO2 T01430136
KMGG 250235Z AUTO 31005KT 10SM SCT006 SCT013 BKN085 15/14 A2987 RMK AO2 T01450138
KMGG 250215Z AUTO 31004KT 10SM -DZ SCT011 SCT055 BKN080 15/14 A2986 RMK AO2 T01450137
KMGG 250155Z AUTO 32005KT 7SM -RA SCT039 BKN055 OVC080 15/14 A2986 RMK AO2 T01460137
KMGG 250135Z AUTO 02003KT 4SM RA SCT041 BKN049 OVC065 15/14 A2984 RMK AO2 T01470137
KMGG 250115Z AUTO 01004KT 7SM -RA SCT039 SCT048 OVC055 15/14 A2984 RMK AO2 T01500139
KMGG 250055Z AUTO 34005KT 10SM RA BKN048 OVC055 16/14 A2984 RMK AO2 T01550138
KMGG 250035Z AUTO 35006KT 10SM RA BKN050 OVC075 16/14 A2983 RMK AO2 T01580137
KMGG 250015Z AUTO 34005KT 10SM -RA SCT050 BKN075 BKN110 16/14 A2982 RMK AO2 T01600138
KMGG 242355Z AUTO 34007KT 10SM SCT060 SCT080 SCT090 16/14 A2982 RMK AO2 T01620138 10247 20162
KMGG 242335Z AUTO 33006KT 10SM BKN060 BKN070 BKN090 17/14 A2982 RMK AO2 T01650141
KMGG 242315Z AUTO 31005KT 10SM SCT015 BKN060 OVC090 17/14 A2983 RMK AO2 T01660140
KMGG 242255Z AUTO 29008G15KT 10SM SCT060 BKN070 BKN090 17/14 A2983 RMK AO2 T01710141
KMGG 242235Z AUTO 30008G18KT 10SM SCT060 OVC070 18/15 A2982 RMK AO2 T01790145
KMGG 242215Z AUTO 29009KT 10SM BKN060 OVC075 19/15 A2982 RMK AO2 T01940150
KMGG 242155Z AUTO 29006KT 10SM SCT038 BKN060 OVC080 20/15 A2981 RMK AO2 T01990150
KMGG 242135Z AUTO 27007KT 10SM SCT042 SCT060 BKN070 23/16 A2980 RMK AO2 T02250158
KMGG 242115Z AUTO 18005KT 10SM BKN080 23/16 A2980 RMK AO2 T02290157
KMGG 242055Z AUTO 20004KT 10SM SCT042 SCT050 BKN080 23/16 A2980 RMK AO2 T02280157
KMGG 242035Z AUTO 21005KT 10SM BKN041 BKN050 OVC060 22/16 A2981 RMK AO2 T02230156
KMGG 242015Z AUTO 20006KT 10SM SCT060 BKN070 23/16 A2981 RMK AO2 T02310155
KMGG 241955Z AUTO 19008KT 10SM SCT060 24/15 A2981 RMK AO2 T02440153
KMGG 241936Z AUTO 20007G16KT 160V220 10SM SCT036 BKN047 24/16 A2982 RMK AO2 T02390155
KMGG 241915Z AUTO 20007G16KT 10SM SCT033 BKN041 OVC050 23/15 A2982 RMK AO2 T02270154
KMGG 241855Z AUTO 18007G17KT 140V210 10SM BKN034 BKN039 BKN045 22/16 A2983 RMK AO2 T02210157
KMGG 241835Z AUTO 18007KT 150V220 10SM SCT031 23/16 A2983 RMK AO2 T02260161
KMGG 241815Z AUTO 17008G15KT 10SM CLR 22/15 A2983 RMK AO2 T02160154
KMGG 241755Z AUTO 18010G17KT 10SM CLR 22/15 A2983 RMK AO2 T02220152 10222 20152
KMGG 241735Z AUTO 18010G17KT 150V210 10SM CLR 22/15 A2983 RMK AO2 T02200150
KMGG 241715Z AUTO 17011G17KT 130V200 10SM CLR 22/15 A2984 RMK AO2 T02150147
KMGG 241655Z AUTO 17008G17KT 140V200 10SM CLR 21/15 A2984 RMK AO2 T02130147